createdAt,value
2018-04-18T00:01:20.337Z,84.20
2018-04-18T00:03:47.876Z,84.50
2018-04-18T00:06:15.401Z,84.40
2018-04-18T00:08:43.799Z,84.50
2018-04-18T00:11:11.404Z,84.40
2018-04-18T00:13:39.759Z,84.70
2018-04-18T00:16:07.444Z,84.60
2018-04-18T00:18:36.113Z,85.00
2018-04-18T00:21:03.687Z,85.00
2018-04-18T00:23:31.219Z,85.20
2018-04-18T00:25:58.826Z,85.20
2018-04-18T00:28:27.197Z,86.70
2018-04-18T00:30:54.766Z,86.70
2018-04-18T00:33:22.405Z,86.50
2018-04-18T00:35:49.930Z,87.00
2018-04-18T00:38:17.444Z,87.00
2018-04-18T00:40:45.705Z,87.10
2018-04-18T00:43:13.249Z,87.00
2018-04-18T00:45:40.768Z,87.30
2018-04-18T00:48:08.535Z,86.90
2018-04-18T00:50:36.189Z,86.80
2018-04-18T00:53:03.682Z,87.10
2018-04-18T00:55:31.202Z,88.10
2018-04-18T00:57:58.805Z,88.40
2018-04-18T01:00:26.296Z,87.80
2018-04-18T01:02:54.652Z,89.00
2018-04-18T01:05:22.203Z,88.90
2018-04-18T01:07:49.752Z,88.90
2018-04-18T01:10:17.298Z,89.00
2018-04-18T01:12:44.870Z,89.30
2018-04-18T01:15:12.449Z,89.90
2018-04-18T01:17:40.062Z,90.50
2018-04-18T01:20:07.768Z,91.10
2018-04-18T01:22:35.370Z,91.40
2018-04-18T01:25:02.903Z,91.30
2018-04-18T01:27:31.342Z,91.50
2018-04-18T01:29:58.851Z,91.50
2018-04-18T01:32:27.222Z,91.90
2018-04-18T01:34:55.522Z,91.80
2018-04-18T01:37:23.195Z,91.70
2018-04-18T01:39:50.831Z,92.00
2018-04-18T01:42:19.149Z,92.50
2018-04-18T01:44:47.091Z,92.50
2018-04-18T01:47:14.720Z,92.70
2018-04-18T01:49:42.562Z,92.70
2018-04-18T01:52:11.330Z,93.90
2018-04-18T01:54:38.868Z,93.90
2018-04-18T01:57:06.422Z,93.70
2018-04-18T01:59:34.083Z,93.20
2018-04-18T02:02:01.764Z,93.10
2018-04-18T02:04:29.322Z,93.20
2018-04-18T02:06:56.953Z,93.50
2018-04-18T02:09:24.536Z,94.00
2018-04-18T02:11:52.064Z,94.30
2018-04-18T02:14:19.563Z,94.40
2018-04-18T02:16:47.075Z,95.00
2018-04-18T02:19:14.884Z,95.60
2018-04-18T02:21:48.662Z,95.90
2018-04-18T02:24:16.175Z,95.90
2018-04-18T02:26:43.842Z,96.10
2018-04-18T02:29:11.494Z,95.90
2018-04-18T02:31:39.074Z,95.90
2018-04-18T02:34:09.744Z,96.20
2018-04-18T02:36:37.287Z,96.10
2018-04-18T02:39:04.835Z,96.10
2018-04-18T02:41:32.408Z,96.10
2018-04-18T02:44:00.002Z,96.50
2018-04-18T02:46:27.537Z,96.40
2018-04-18T02:48:55.077Z,96.40
2018-04-18T02:51:22.751Z,96.30
2018-04-18T02:53:50.439Z,96.50
2018-04-18T02:56:24.352Z,96.90
2018-04-18T02:58:51.884Z,96.80
2018-04-18T03:01:19.419Z,96.70
2018-04-18T03:03:46.920Z,96.70
2018-04-18T03:06:14.461Z,96.80
2018-04-18T03:08:42.187Z,96.80
2018-04-18T03:11:10.545Z,97.40
2018-04-18T03:13:38.990Z,97.40
2018-04-18T03:16:07.308Z,97.30
2018-04-18T03:18:35.618Z,97.30
2018-04-18T03:21:03.136Z,97.30
2018-04-18T03:23:30.630Z,97.20
2018-04-18T03:25:58.221Z,97.50
2018-04-18T03:28:25.769Z,97.60
2018-04-18T03:30:53.362Z,97.90
2018-04-18T03:33:20.882Z,98.20
2018-04-18T03:35:48.507Z,98.50
2018-04-18T03:38:16.034Z,98.50
2018-04-18T03:40:47.395Z,99.00
2018-04-18T03:43:14.929Z,99.00
2018-04-18T03:45:45.131Z,98.60
2018-04-18T03:48:12.683Z,98.50
2018-04-18T03:50:40.270Z,98.60
2018-04-18T03:53:08.001Z,98.70
2018-04-18T03:55:35.508Z,98.30
2018-04-18T03:58:03.803Z,98.60
2018-04-18T04:00:31.326Z,99.00
2018-04-18T04:02:58.888Z,98.70
2018-04-18T04:05:26.581Z,99.10
2018-04-18T04:07:54.108Z,98.90
2018-04-18T04:10:21.753Z,98.60
2018-04-18T04:12:49.281Z,98.80
2018-04-18T04:15:16.784Z,98.80
2018-04-18T04:17:56.094Z,99.20
2018-04-18T04:20:35.347Z,98.80
2018-04-18T04:23:14.798Z,99.30
2018-04-18T04:25:42.349Z,99.30
2018-04-18T04:28:09.901Z,99.70
2018-04-18T04:30:39.029Z,99.90
2018-04-18T04:33:06.862Z,99.90
2018-04-18T04:35:35.352Z,99.90
2018-04-18T04:38:02.889Z,99.90
2018-04-18T04:40:30.828Z,99.90
2018-04-18T04:42:58.345Z,99.90
2018-04-18T04:45:25.957Z,99.90
2018-04-18T04:47:53.542Z,99.90
2018-04-18T04:50:21.033Z,99.90
2018-04-18T04:52:48.639Z,99.90
2018-04-18T04:55:16.230Z,99.60
2018-04-18T04:57:44.682Z,99.90
2018-04-18T05:00:12.191Z,99.90
2018-04-18T05:02:40.676Z,99.50
2018-04-18T05:05:08.196Z,99.50
2018-04-18T05:07:35.873Z,99.30
2018-04-18T05:10:04.498Z,98.10
2018-04-18T05:12:32.055Z,98.10
2018-04-18T05:14:59.616Z,98.00
2018-04-18T05:17:27.156Z,97.70
2018-04-18T05:19:54.744Z,98.70
2018-04-18T05:22:34.277Z,97.80
2018-04-18T05:25:02.122Z,97.00
2018-04-18T05:27:30.108Z,97.30
2018-04-18T05:29:57.708Z,97.70
2018-04-18T05:32:28.364Z,97.10
2018-04-18T05:34:55.881Z,97.10
2018-04-18T05:37:24.836Z,96.90
2018-04-18T05:39:52.965Z,96.40
2018-04-18T05:42:20.541Z,95.80
2018-04-18T05:44:48.974Z,96.40
2018-04-18T05:47:16.491Z,96.40
2018-04-18T05:49:44.826Z,95.40
2018-04-18T05:52:12.541Z,95.40
2018-04-18T05:54:40.044Z,94.80
2018-04-18T05:57:07.638Z,94.90
2018-04-18T05:59:35.942Z,94.40
2018-04-18T06:02:03.511Z,94.40
2018-04-18T06:04:31.057Z,94.70
2018-04-18T06:06:58.700Z,94.70
2018-04-18T06:09:26.976Z,93.20
2018-04-18T06:11:55.253Z,91.90
2018-04-18T06:14:23.040Z,91.90
2018-04-18T06:16:50.679Z,91.40
2018-04-18T06:19:19.025Z,90.20
2018-04-18T06:21:46.550Z,90.20
2018-04-18T06:24:14.068Z,89.70
2018-04-18T06:26:48.240Z,79.40
2018-04-18T06:29:15.761Z,79.40
2018-04-18T06:31:43.279Z,76.10
2018-04-18T06:34:10.758Z,75.10
2018-04-18T06:36:39.021Z,67.10
2018-04-18T06:39:06.600Z,67.00
2018-04-18T06:41:34.869Z,61.10
2018-04-18T06:44:02.461Z,61.10
2018-04-18T06:46:29.981Z,60.00
2018-04-18T06:48:58.250Z,57.90
2018-04-18T06:51:25.811Z,57.80
2018-04-18T06:53:54.109Z,56.70
2018-04-18T06:56:21.669Z,56.60
2018-04-18T06:58:49.155Z,54.60
2018-04-18T07:01:16.702Z,53.60
2018-04-18T07:03:44.280Z,53.70
2018-04-18T07:06:11.789Z,55.40
2018-04-18T07:08:40.119Z,52.30
2018-04-18T07:11:07.636Z,52.20
2018-04-18T07:13:35.144Z,50.30
2018-04-18T07:16:02.679Z,54.10
2018-04-18T07:18:30.176Z,51.80
2018-04-18T07:20:57.758Z,54.40
2018-04-18T07:23:27.960Z,62.80
2018-04-18T07:25:55.614Z,62.70
2018-04-18T07:28:23.128Z,57.70
2018-04-18T07:30:50.626Z,62.20
2018-04-18T07:33:18.218Z,62.40
2018-04-18T07:35:46.498Z,66.20
2018-04-18T07:38:14.013Z,66.20
2018-04-18T07:40:41.578Z,68.70
2018-04-18T07:43:09.158Z,67.70
2018-04-18T07:45:37.417Z,63.70
2018-04-18T07:48:04.924Z,63.70
2018-04-18T07:50:32.614Z,66.70
2018-04-18T07:53:00.128Z,67.70
2018-04-18T07:55:28.512Z,67.80
2018-04-18T07:57:56.015Z,67.80
2018-04-18T08:00:23.553Z,66.80
2018-04-18T08:02:51.094Z,65.00
2018-04-18T08:05:18.575Z,65.70
2018-04-18T08:07:46.150Z,66.80
2018-04-18T08:10:13.679Z,63.80
2018-04-18T08:12:41.318Z,64.90
2018-04-18T08:15:08.917Z,64.30
2018-04-18T08:17:36.576Z,63.00
2018-04-18T08:20:04.215Z,61.80
2018-04-18T08:22:31.807Z,63.50
2018-04-18T08:24:59.314Z,63.40
2018-04-18T08:27:26.889Z,64.20
2018-04-18T08:29:54.472Z,66.40
2018-04-18T08:32:22.081Z,63.10
2018-04-18T08:34:49.846Z,62.00
2018-04-18T08:37:17.398Z,62.80
2018-04-18T08:39:45.255Z,62.40
2018-04-18T08:42:12.773Z,60.50
2018-04-18T08:44:40.437Z,59.80
2018-04-18T08:47:08.208Z,55.70
2018-04-18T08:49:35.797Z,54.40
2018-04-18T08:52:03.526Z,56.00
2018-04-18T08:54:31.248Z,55.00
2018-04-18T08:56:58.952Z,53.10
2018-04-18T08:59:26.478Z,54.00
2018-04-18T09:01:54.046Z,52.70
2018-04-18T09:04:21.604Z,46.90
2018-04-18T09:06:49.216Z,44.80
2018-04-18T09:09:17.664Z,42.60
2018-04-18T09:11:45.399Z,42.20
2018-04-18T09:14:12.984Z,42.70
2018-04-18T09:16:40.847Z,42.20
2018-04-18T09:19:08.394Z,41.70
2018-04-18T09:21:35.920Z,39.80
2018-04-18T09:24:03.830Z,39.20
2018-04-18T09:26:31.375Z,39.30
2018-04-18T09:28:59.067Z,37.00
2018-04-18T09:31:26.914Z,36.90
2018-04-18T09:33:54.432Z,37.70
2018-04-18T09:36:22.732Z,38.30
2018-04-18T09:38:51.484Z,38.30
2018-04-18T09:41:19.117Z,37.20
2018-04-18T09:43:47.597Z,35.90
2018-04-18T09:46:15.165Z,35.90
2018-04-18T09:48:42.728Z,36.80
2018-04-18T09:51:10.325Z,36.70
2018-04-18T09:53:38.050Z,36.50
2018-04-18T09:56:05.565Z,35.80
2018-04-18T09:58:33.143Z,35.00
2018-04-18T10:01:00.656Z,35.70
2018-04-18T10:03:28.277Z,34.70
2018-04-18T10:05:55.906Z,35.20
2018-04-18T10:08:23.636Z,35.00
2018-04-18T10:10:51.145Z,34.00
2018-04-18T10:13:18.757Z,34.30
2018-04-18T10:15:46.603Z,34.40
2018-04-18T10:18:15.354Z,33.70
2018-04-18T10:20:42.847Z,33.70
2018-04-18T10:23:10.397Z,34.20
2018-04-18T10:25:38.767Z,32.60
2018-04-18T10:28:06.359Z,32.50
2018-04-18T10:30:33.891Z,33.40
2018-04-18T10:33:01.482Z,32.60
2018-04-18T10:35:29.089Z,32.00
2018-04-18T10:37:56.772Z,32.00
2018-04-18T10:40:24.473Z,31.20
2018-04-18T10:42:51.986Z,32.20
2018-04-18T10:45:20.347Z,31.60
2018-04-18T10:47:47.963Z,31.50
2018-04-18T10:50:15.475Z,29.60
2018-04-18T10:52:44.009Z,30.30
2018-04-18T10:55:11.648Z,30.30
2018-04-18T10:57:39.935Z,28.50
2018-04-18T11:00:07.427Z,28.50
2018-04-18T11:02:34.971Z,28.80
2018-04-18T11:05:02.731Z,29.40
2018-04-18T11:07:30.340Z,28.20
2018-04-18T11:09:58.609Z,28.30
2018-04-18T11:12:26.187Z,28.20
2018-04-18T11:14:53.801Z,27.60
2018-04-18T11:17:21.285Z,27.70
2018-04-18T11:19:48.971Z,27.80
2018-04-18T11:22:16.532Z,27.00
2018-04-18T11:24:44.332Z,27.40
2018-04-18T11:27:12.145Z,26.20
2018-04-18T11:29:39.710Z,25.50
2018-04-18T11:32:07.373Z,24.10
2018-04-18T11:34:35.707Z,25.80
2018-04-18T11:37:03.705Z,25.80
2018-04-18T11:39:31.291Z,25.60
2018-04-18T11:41:59.551Z,26.50
2018-04-18T11:44:27.949Z,26.20
2018-04-18T11:46:55.592Z,26.20
2018-04-18T11:49:23.114Z,25.40
2018-04-18T11:51:50.656Z,23.80
2018-04-18T11:54:18.312Z,23.00
2018-04-18T11:56:45.819Z,23.50
2018-04-18T11:59:13.589Z,23.40
2018-04-18T12:01:41.182Z,23.40
2018-04-18T12:04:09.179Z,24.30
2018-04-18T12:06:36.830Z,23.70
2018-04-18T12:09:04.641Z,22.90
2018-04-18T12:11:33.074Z,23.00
2018-04-18T12:14:00.907Z,23.00
2018-04-18T12:16:28.694Z,23.30
2018-04-18T12:18:56.419Z,23.40
2018-04-18T12:21:24.139Z,22.50
2018-04-18T12:23:51.758Z,23.20
2018-04-18T12:26:19.355Z,22.20
2018-04-18T12:28:47.052Z,22.50
2018-04-18T12:31:14.608Z,22.60
2018-04-18T12:33:42.221Z,22.30
2018-04-18T12:36:09.951Z,22.00
2018-04-18T12:38:37.490Z,22.20
2018-04-18T12:41:05.169Z,21.20
2018-04-18T12:43:33.650Z,20.60
2018-04-18T12:46:01.304Z,20.60
2018-04-18T12:48:28.852Z,20.50
2018-04-18T12:50:56.467Z,21.30
2018-04-18T12:53:24.013Z,21.80
2018-04-18T12:55:51.605Z,21.70
2018-04-18T12:58:19.152Z,20.50
2018-04-18T13:00:46.763Z,20.80
2018-04-18T13:03:14.357Z,20.50
2018-04-18T13:05:42.686Z,21.00
2018-04-18T13:08:10.343Z,20.50
2018-04-18T13:10:38.048Z,20.30
2018-04-18T13:13:05.605Z,20.60
2018-04-18T13:15:33.175Z,19.40
2018-04-18T13:18:00.799Z,19.90
2018-04-18T13:20:29.102Z,20.60
2018-04-18T13:22:56.665Z,20.60
2018-04-18T13:25:24.291Z,21.00
2018-04-18T13:27:51.761Z,19.80
2018-04-18T13:30:19.443Z,20.40
2018-04-18T13:32:47.080Z,20.80
2018-04-18T13:35:15.681Z,21.00
2018-04-18T13:37:44.200Z,21.00
2018-04-18T13:40:11.753Z,20.50
2018-04-18T13:42:40.267Z,21.90
2018-04-18T13:45:07.894Z,21.90
2018-04-18T13:47:35.413Z,20.70
2018-04-18T13:50:02.895Z,20.20
2018-04-18T13:52:30.638Z,20.50
2018-04-18T13:54:58.206Z,21.40
2018-04-18T13:57:25.810Z,20.10
2018-04-18T13:59:53.315Z,20.40
2018-04-18T14:02:20.835Z,19.90
2018-04-18T14:04:48.318Z,21.60
2018-04-18T14:07:16.562Z,22.30
2018-04-18T14:09:44.100Z,22.30
2018-04-18T14:12:11.617Z,20.70
2018-04-18T14:14:39.110Z,20.30
2018-04-18T14:17:06.652Z,20.70
2018-04-18T14:19:34.153Z,20.70
2018-04-18T14:22:01.654Z,21.50
2018-04-18T14:24:29.202Z,21.20
2018-04-18T14:26:56.704Z,21.00
2018-04-18T14:29:24.225Z,22.40
2018-04-18T22:17:27.453Z,48.60
2018-04-18T22:19:55.018Z,46.80
2018-04-18T22:22:23.350Z,46.40
2018-04-18T22:24:51.389Z,46.20
2018-04-18T22:27:18.900Z,49.10
2018-04-18T22:29:46.403Z,48.70
2018-04-18T22:32:13.924Z,48.10
2018-04-18T22:34:41.436Z,47.10
2018-04-18T22:37:09.045Z,46.80
2018-04-18T22:39:36.576Z,48.00
2018-04-18T22:42:04.113Z,50.00
2018-04-18T22:44:31.609Z,48.10
2018-04-18T22:46:59.185Z,48.70
2018-04-18T22:49:27.519Z,49.60
2018-04-18T22:51:55.900Z,50.00
2018-04-18T22:54:23.414Z,50.10
2018-04-18T22:56:51.752Z,49.40
2018-04-18T22:59:19.242Z,49.30
2018-04-18T23:01:47.523Z,50.40
2018-04-18T23:04:15.799Z,51.00
2018-04-18T23:06:43.374Z,50.90
2018-04-18T23:09:10.882Z,52.00
2018-04-18T23:11:38.617Z,51.20
2018-04-18T23:14:06.176Z,51.70
2018-04-18T23:16:33.693Z,52.90
2018-04-18T23:19:01.962Z,53.60
2018-04-18T23:21:29.511Z,53.50
2018-04-18T23:24:00.859Z,55.10
2018-04-18T23:26:28.374Z,55.00
2018-04-18T23:28:55.889Z,55.00
2018-04-18T23:31:23.380Z,54.80
2018-04-18T23:33:50.971Z,55.40
2018-04-18T23:36:18.537Z,55.30
2018-04-18T23:38:46.023Z,56.30
2018-04-18T23:41:14.284Z,57.20
2018-04-18T23:43:41.876Z,57.20
2018-04-18T23:46:09.530Z,57.40
2018-04-18T23:48:37.017Z,57.90
2018-04-18T23:51:04.567Z,58.30
2018-04-18T23:53:32.075Z,58.90
2018-04-18T23:55:59.615Z,60.10
2018-04-18T23:58:27.108Z,59.60
